createdAt,value
2018-09-19T00:01:56.531Z,56.30
2018-09-19T00:04:59.429Z,56.40
2018-09-19T00:08:02.403Z,56.10
2018-09-19T00:11:05.596Z,56.20
2018-09-19T00:14:09.357Z,56.40
2018-09-19T00:17:12.244Z,56.20
2018-09-19T00:20:15.273Z,56.50
2018-09-19T00:23:18.160Z,56.30
2018-09-19T00:26:21.108Z,56.10
2018-09-19T00:29:24.126Z,56.30
2018-09-19T00:32:27.114Z,56.00
2018-09-19T00:35:30.136Z,55.90
2018-09-19T00:38:33.061Z,56.90
2018-09-19T00:41:36.045Z,56.40
2018-09-19T00:44:39.003Z,56.90
2018-09-19T00:47:41.990Z,56.20
2018-09-19T00:50:44.890Z,56.20
2018-09-19T00:53:47.814Z,56.60
2018-09-19T00:56:50.765Z,56.80
2018-09-19T00:59:53.732Z,56.90
2018-09-19T01:02:56.725Z,56.80
2018-09-19T01:05:59.700Z,56.70
2018-09-19T01:09:02.960Z,56.50
2018-09-19T01:12:05.859Z,56.30
2018-09-19T01:15:09.013Z,56.70
2018-09-19T01:18:11.977Z,56.50
2018-09-19T01:21:14.856Z,56.70
2018-09-19T01:24:17.785Z,56.90
2018-09-19T01:27:20.670Z,56.80
2018-09-19T01:30:23.636Z,56.90
2018-09-19T01:33:26.564Z,56.90
2018-09-19T01:36:29.483Z,56.80
2018-09-19T01:39:32.460Z,57.00
2018-09-19T01:42:35.408Z,56.70
2018-09-19T01:45:38.454Z,56.90
2018-09-19T01:48:41.374Z,56.60
2018-09-19T01:51:44.491Z,56.80
2018-09-19T01:54:47.455Z,56.70
2018-09-19T01:57:50.368Z,56.60
2018-09-19T02:00:53.256Z,57.40
2018-09-19T02:03:56.192Z,56.80
2018-09-19T02:06:59.168Z,56.70
2018-09-19T02:10:02.160Z,56.50
2018-09-19T02:13:05.127Z,56.60
2018-09-19T02:16:08.096Z,56.60
2018-09-19T02:19:11.076Z,56.90
2018-09-19T02:22:14.024Z,56.90
2018-09-19T02:25:16.969Z,56.70
2018-09-19T02:28:20.042Z,56.80
2018-09-19T02:31:22.981Z,56.80
2018-09-19T02:34:25.887Z,56.80
2018-09-19T02:37:28.858Z,56.70
2018-09-19T02:40:31.777Z,57.10
2018-09-19T02:43:34.713Z,56.90
2018-09-19T02:46:37.701Z,57.10
2018-09-19T02:49:40.674Z,57.30
2018-09-19T02:52:43.627Z,58.20
2018-09-19T02:55:46.517Z,58.50
2018-09-19T02:58:49.524Z,58.50
2018-09-19T03:01:52.607Z,58.50
2018-09-19T03:04:55.549Z,58.30
2018-09-19T03:07:58.427Z,58.10
2018-09-19T03:11:01.322Z,58.70
2018-09-19T03:14:04.269Z,58.30
2018-09-19T03:17:07.237Z,58.20
2018-09-19T03:20:10.163Z,58.30
2018-09-19T03:23:13.200Z,57.90
2018-09-19T03:26:16.115Z,58.00
2018-09-19T03:29:19.021Z,58.10
2018-09-19T03:32:21.945Z,57.80
2018-09-19T03:35:24.969Z,58.10
2018-09-19T03:38:27.854Z,58.10
2018-09-19T03:41:30.859Z,58.10
2018-09-19T03:44:33.821Z,58.10
2018-09-19T03:47:36.805Z,58.40
2018-09-19T03:50:39.721Z,58.30
2018-09-19T03:53:42.641Z,58.10
2018-09-19T03:56:45.581Z,58.60
2018-09-19T03:59:48.485Z,58.80
2018-09-19T04:02:51.429Z,58.90
2018-09-19T04:05:54.356Z,59.40
2018-09-19T04:08:57.312Z,59.30
2018-09-19T04:12:00.257Z,59.30
2018-09-19T04:15:03.215Z,59.60
2018-09-19T04:18:06.764Z,59.50
2018-09-19T04:21:09.754Z,59.30
2018-09-19T04:24:12.647Z,59.40
2018-09-19T04:27:15.581Z,59.40
2018-09-19T04:30:18.584Z,59.20
2018-09-19T04:33:21.578Z,59.20
2018-09-19T04:36:24.505Z,59.40
2018-09-19T04:39:27.466Z,58.90
2018-09-19T04:42:30.476Z,59.00
2018-09-19T04:45:33.490Z,59.10
2018-09-19T04:48:36.465Z,58.90
2018-09-19T04:51:39.934Z,59.00
2018-09-19T04:54:42.827Z,58.70
2018-09-19T04:57:45.749Z,58.80
2018-09-19T05:00:48.670Z,58.80
2018-09-19T05:03:51.597Z,58.90
2018-09-19T05:06:54.621Z,59.00
2018-09-19T05:09:57.540Z,59.00
2018-09-19T05:13:00.492Z,59.20
2018-09-19T05:16:03.397Z,60.00
2018-09-19T05:19:06.336Z,60.60
2018-09-19T05:22:09.279Z,61.90
2018-09-19T05:25:12.172Z,60.90
2018-09-19T05:28:15.343Z,60.10
2018-09-19T05:31:18.314Z,59.80
2018-09-19T05:34:21.247Z,59.80
2018-09-19T05:37:24.142Z,59.90
2018-09-19T05:40:27.092Z,59.80
2018-09-19T05:43:30.037Z,59.70
2018-09-19T05:46:32.952Z,59.70
2018-09-19T05:49:36.481Z,60.00
2018-09-19T05:52:40.210Z,59.70
2018-09-19T05:55:43.281Z,59.50
2018-09-19T05:58:46.796Z,59.50
2018-09-19T06:01:50.463Z,59.40
2018-09-19T06:04:53.441Z,59.10
2018-09-19T06:07:56.372Z,59.40
2018-09-19T06:11:02.328Z,59.20
2018-09-19T06:14:05.325Z,59.30
2018-09-19T06:17:08.284Z,59.40
2018-09-19T06:20:11.205Z,59.40
2018-09-19T06:23:14.128Z,59.60
2018-09-19T06:26:17.061Z,59.80
2018-09-19T06:29:20.338Z,59.70
2018-09-19T06:32:23.488Z,60.00
2018-09-19T06:35:26.870Z,60.10
2018-09-19T06:38:30.338Z,60.30
2018-09-19T06:41:33.845Z,60.40
2018-09-19T06:44:37.382Z,60.30
2018-09-19T06:47:41.119Z,59.30
2018-09-19T06:50:44.169Z,59.90
2018-09-19T06:53:47.704Z,59.30
2018-09-19T06:56:50.694Z,59.70
2018-09-19T06:59:53.681Z,60.70
2018-09-19T07:02:56.606Z,59.90
2018-09-19T07:05:59.584Z,60.00
2018-09-19T07:09:02.803Z,59.90
2018-09-19T07:12:05.974Z,60.50
2018-09-19T07:15:08.959Z,60.40
2018-09-19T07:18:12.487Z,61.00
2018-09-19T07:21:15.971Z,61.00
2018-09-19T07:24:18.928Z,58.60
2018-09-19T07:27:21.892Z,59.60
2018-09-19T07:30:25.407Z,60.20
2018-09-19T07:33:28.310Z,60.20
2018-09-19T07:36:31.258Z,61.30
2018-09-19T07:39:34.217Z,60.60
2018-09-19T07:42:37.181Z,60.40
2018-09-19T07:45:40.702Z,61.20
2018-09-19T07:48:43.705Z,60.80
2018-09-19T07:51:46.627Z,60.60
2018-09-19T07:54:50.218Z,60.80
2018-09-19T07:57:53.206Z,60.80
2018-09-19T08:01:08.821Z,61.10
2018-09-19T08:04:13.168Z,61.00
2018-09-19T08:07:21.358Z,61.30
2018-09-19T08:10:24.740Z,61.20
2018-09-19T08:13:28.129Z,60.70
2018-09-19T08:16:31.156Z,60.80
2018-09-19T08:19:34.698Z,60.40
2018-09-19T08:22:38.173Z,61.00
2018-09-19T08:25:41.111Z,60.90
2018-09-19T08:28:44.722Z,60.90
2018-09-19T08:31:47.756Z,60.70
2018-09-19T08:34:50.758Z,60.80
2018-09-19T08:37:54.376Z,61.00
2018-09-19T08:40:57.871Z,60.00
2018-09-19T08:44:01.632Z,61.00
2018-09-19T08:47:04.661Z,60.50
2018-09-19T08:50:07.663Z,60.30
2018-09-19T08:53:12.037Z,60.30
2018-09-19T08:56:15.081Z,59.80
2018-09-19T08:59:18.012Z,60.30
2018-09-19T09:02:20.938Z,59.80
2018-09-19T09:05:24.019Z,59.60
2018-09-19T09:08:27.359Z,59.10
2018-09-19T09:11:30.322Z,59.30
2018-09-19T09:14:33.313Z,59.00
2018-09-19T09:17:36.700Z,58.80
2018-09-19T09:20:40.530Z,58.80
2018-09-19T09:23:43.445Z,58.80
2018-09-19T09:26:46.401Z,58.90
2018-09-19T09:29:49.270Z,58.90
2018-09-19T09:32:52.604Z,58.40
2018-09-19T09:35:56.006Z,58.50
2018-09-19T09:38:59.029Z,58.70
2018-09-19T09:42:01.982Z,57.60
2018-09-19T09:45:04.979Z,57.30
2018-09-19T09:48:07.920Z,56.40
2018-09-19T09:51:11.325Z,56.10
2018-09-19T09:54:14.935Z,56.50
2018-09-19T09:57:18.520Z,55.70
2018-09-19T10:00:27.357Z,55.30
2018-09-19T10:03:30.908Z,55.10
2018-09-19T10:06:33.941Z,54.90
2018-09-19T10:09:36.842Z,54.40
2018-09-19T10:12:39.811Z,54.30
2018-09-19T10:15:42.749Z,54.40
2018-09-19T10:18:46.228Z,54.10
2018-09-19T10:21:51.097Z,53.10
2018-09-19T10:24:54.106Z,54.20
2018-09-19T10:27:57.065Z,52.40
2018-09-19T10:31:00.034Z,52.30
2018-09-19T10:34:02.961Z,52.90
2018-09-19T10:37:05.806Z,52.40
2018-09-19T10:40:08.730Z,52.60
2018-09-19T10:43:11.680Z,51.40
2018-09-19T10:46:15.088Z,52.70
2018-09-19T10:49:18.554Z,51.50
2018-09-19T10:52:21.911Z,52.10
2018-09-19T10:55:24.904Z,51.60
2018-09-19T10:58:27.872Z,53.20
2018-09-19T11:01:30.907Z,51.90
2018-09-19T11:04:33.849Z,51.10
2018-09-19T11:07:37.288Z,51.30
2018-09-19T11:10:40.199Z,51.60
2018-09-19T11:13:43.695Z,51.00
2018-09-19T11:16:46.653Z,52.30
2018-09-19T11:19:49.693Z,51.50
2018-09-19T11:22:52.566Z,51.40
2018-09-19T11:25:55.523Z,52.00
2018-09-19T11:28:58.451Z,53.00
2018-09-19T11:32:01.485Z,53.40
2018-09-19T11:35:04.459Z,52.60
2018-09-19T11:38:07.485Z,53.10
2018-09-19T11:41:10.429Z,53.50
2018-09-19T11:44:13.453Z,53.60
2018-09-19T11:47:16.714Z,53.70
2018-09-19T11:50:20.239Z,53.00
2018-09-19T11:53:26.433Z,52.40
2018-09-19T11:56:29.385Z,52.10
2018-09-19T11:59:32.775Z,52.60
2018-09-19T12:02:36.238Z,53.20
2018-09-19T12:05:39.229Z,54.40
2018-09-19T12:08:42.138Z,53.10
2018-09-19T12:11:45.018Z,54.30
2018-09-19T12:14:47.945Z,53.50
2018-09-19T12:17:51.470Z,53.10
2018-09-19T12:20:54.446Z,54.50
2018-09-19T12:23:57.345Z,52.20
2018-09-19T12:27:00.290Z,51.00
2018-09-19T12:30:03.991Z,52.20
2018-09-19T12:33:08.520Z,51.80
2018-09-19T12:36:11.465Z,51.80
2018-09-19T12:39:14.385Z,51.90
2018-09-19T12:42:17.819Z,51.50
2018-09-19T12:45:21.229Z,50.60
2018-09-19T12:48:24.180Z,49.40
2018-09-19T12:51:27.113Z,49.10
2018-09-19T12:54:30.101Z,48.70
2018-09-19T12:57:33.562Z,48.10
2018-09-19T13:00:37.121Z,48.20
2018-09-19T13:03:40.633Z,48.60
2018-09-19T13:06:43.578Z,48.90
2018-09-19T13:09:46.562Z,48.20
2018-09-19T13:12:49.914Z,46.70
2018-09-19T13:15:53.403Z,47.70
2018-09-19T13:18:56.822Z,47.70
2018-09-19T13:22:00.301Z,46.30
2018-09-19T13:25:03.832Z,46.10
2018-09-19T13:28:07.268Z,46.10
2018-09-19T13:31:10.244Z,46.70
2018-09-19T13:34:13.174Z,45.30
2018-09-19T13:37:16.158Z,45.70
2018-09-19T13:40:19.142Z,45.00
2018-09-19T13:43:22.087Z,44.90
2018-09-19T13:46:26.235Z,44.90
2018-09-19T13:49:37.806Z,46.70
2018-09-19T13:52:40.718Z,45.60
2018-09-19T13:55:44.728Z,45.30
2018-09-19T13:58:47.853Z,45.30
2018-09-19T14:01:51.364Z,45.80
2018-09-19T14:04:54.371Z,44.00
2018-09-19T14:07:57.305Z,44.30
2018-09-19T14:11:00.288Z,44.30
2018-09-19T14:14:04.150Z,45.20
2018-09-19T14:17:07.475Z,44.40
2018-09-19T14:20:10.390Z,43.70
2018-09-19T14:23:13.321Z,44.50
2018-09-19T14:26:16.256Z,43.50
2018-09-19T14:29:19.645Z,44.10
2018-09-19T14:32:23.221Z,44.50
2018-09-19T14:35:26.761Z,44.50
2018-09-19T14:38:29.702Z,44.80
2018-09-19T14:41:32.649Z,44.50
2018-09-19T14:44:35.909Z,45.00
2018-09-19T14:47:38.931Z,45.00
2018-09-19T14:50:42.538Z,44.60
2018-09-19T14:53:46.085Z,44.30
2018-09-19T14:56:49.071Z,44.30
2018-09-19T14:59:51.998Z,44.50
2018-09-19T15:02:55.552Z,44.50
2018-09-19T15:05:59.003Z,44.80
2018-09-19T15:09:02.709Z,44.80
2018-09-19T15:12:06.235Z,44.20
2018-09-19T15:15:09.173Z,44.40
2018-09-19T15:18:12.210Z,45.60
2018-09-19T15:21:15.153Z,45.30
2018-09-19T15:24:18.674Z,45.80
2018-09-19T15:27:21.615Z,45.30
2018-09-19T15:30:24.583Z,45.90
2018-09-19T15:33:28.180Z,46.30
2018-09-19T15:36:31.606Z,46.90
2018-09-19T15:39:34.524Z,46.80
2018-09-19T15:42:37.500Z,47.10
2018-09-19T15:45:41.141Z,46.80
2018-09-19T15:48:44.118Z,46.90
2018-09-19T15:51:47.047Z,46.80
2018-09-19T15:54:51.677Z,47.40
2018-09-19T15:57:55.142Z,47.20
2018-09-19T16:00:58.814Z,47.50
2018-09-19T16:04:01.812Z,47.40
2018-09-19T16:07:04.813Z,47.50
2018-09-19T16:10:07.890Z,47.40
2018-09-19T16:13:10.893Z,47.70
2018-09-19T16:16:14.316Z,47.20
2018-09-19T16:19:17.816Z,47.70
2018-09-19T16:22:20.812Z,48.50
2018-09-19T16:25:23.723Z,48.00
2018-09-19T16:28:27.153Z,48.10
2018-09-19T16:31:30.599Z,48.50
2018-09-19T16:34:33.521Z,48.40
2018-09-19T16:37:37.162Z,48.70
2018-09-19T16:40:40.681Z,48.70
2018-09-19T16:43:44.155Z,48.50
2018-09-19T16:46:47.726Z,48.60
2018-09-19T16:49:51.238Z,48.70
2018-09-19T16:52:54.634Z,49.10
2018-09-19T16:55:57.624Z,49.30
2018-09-19T16:59:01.630Z,49.10
2018-09-19T17:02:04.799Z,48.90
2018-09-19T17:05:07.724Z,49.00
2018-09-19T17:08:10.835Z,48.90
2018-09-19T17:11:14.373Z,48.80
2018-09-19T17:14:18.135Z,49.40
2018-09-19T17:17:21.056Z,48.60
2018-09-19T17:20:23.981Z,48.80
2018-09-19T17:23:26.889Z,49.20
2018-09-19T17:26:30.489Z,49.60
2018-09-19T17:29:33.407Z,50.00
2018-09-19T17:32:37.257Z,50.40
2018-09-19T17:35:40.252Z,49.00
2018-09-19T17:38:43.158Z,49.20
2018-09-19T17:41:46.661Z,50.10
2018-09-19T17:44:49.632Z,49.70
2018-09-19T17:47:53.245Z,49.40
2018-09-19T17:50:56.347Z,49.40
2018-09-19T17:53:59.450Z,50.30
2018-09-19T17:57:02.397Z,49.60
2018-09-19T18:00:07.638Z,49.70
2018-09-19T18:03:10.603Z,49.30
2018-09-19T18:06:13.920Z,50.30
2018-09-19T18:09:16.838Z,50.40
2018-09-19T18:12:20.458Z,51.20
2018-09-19T18:15:23.459Z,51.50
2018-09-19T18:18:26.401Z,52.00
2018-09-19T18:21:29.354Z,51.80
2018-09-19T18:24:32.276Z,51.90
2018-09-19T18:27:35.800Z,52.50
2018-09-19T18:30:38.837Z,52.50
2018-09-19T18:33:41.745Z,53.30
2018-09-19T18:36:44.660Z,53.70
2018-09-19T18:39:47.625Z,53.20
2018-09-19T18:42:50.541Z,53.80
2018-09-19T18:45:53.457Z,54.20
2018-09-19T18:48:56.341Z,54.40
2018-09-19T18:51:59.290Z,54.90
2018-09-19T18:55:02.256Z,54.90
2018-09-19T18:58:05.252Z,54.70
2018-09-19T19:01:09.286Z,55.20
2018-09-19T19:04:12.537Z,54.90
2018-09-19T19:07:15.927Z,52.60
2018-09-19T19:10:18.873Z,53.00
2018-09-19T19:13:21.829Z,51.10
2018-09-19T19:16:24.774Z,51.60
2018-09-19T19:19:27.743Z,49.80
2018-09-19T19:22:30.697Z,49.20
2018-09-19T19:25:34.260Z,49.10
2018-09-19T19:28:37.213Z,49.90
2018-09-19T19:31:40.132Z,49.70
2018-09-19T19:34:43.708Z,50.40
2018-09-19T19:37:47.114Z,49.70
2018-09-19T19:40:50.371Z,51.10
2018-09-19T19:43:53.356Z,51.40
2018-09-19T19:46:57.934Z,51.80
2018-09-19T19:50:00.926Z,51.30
2018-09-19T19:53:03.858Z,51.10
2018-09-19T19:56:06.835Z,51.30
2018-09-19T19:59:10.536Z,51.00
2018-09-19T20:02:14.023Z,52.00
2018-09-19T20:05:17.032Z,52.40
2018-09-19T20:08:20.008Z,52.20
2018-09-19T20:11:23.011Z,52.90
2018-09-19T20:14:26.048Z,52.60
2018-09-19T20:17:29.029Z,52.40
2018-09-19T20:20:32.655Z,52.50
2018-09-19T20:23:35.698Z,52.70
2018-09-19T20:26:38.710Z,52.80
2018-09-19T20:29:41.704Z,53.00
2018-09-19T20:32:44.688Z,53.10
2018-09-19T20:35:48.831Z,53.00
2018-09-19T20:38:51.876Z,53.10
2018-09-19T20:41:55.517Z,52.80
2018-09-19T20:44:58.676Z,53.00
2018-09-19T20:48:02.238Z,53.10
2018-09-19T20:51:05.716Z,53.10
2018-09-19T20:54:08.776Z,53.50
2018-09-19T20:57:12.269Z,53.30
2018-09-19T21:00:15.437Z,53.60
2018-09-19T21:03:18.890Z,53.80
2018-09-19T21:06:21.994Z,52.90
2018-09-19T21:09:25.528Z,53.20
2018-09-19T21:12:29.242Z,53.60
2018-09-19T21:15:32.304Z,53.80
2018-09-19T21:18:35.332Z,53.70
2018-09-19T21:21:38.351Z,54.20
2018-09-19T21:24:41.312Z,54.50
2018-09-19T21:27:44.332Z,54.10
2018-09-19T21:30:47.333Z,54.10
2018-09-19T21:33:50.273Z,54.10
2018-09-19T21:36:53.509Z,54.20
2018-09-19T21:39:56.870Z,54.00
2018-09-19T21:43:00.384Z,54.10
2018-09-19T21:46:03.824Z,53.90
2018-09-19T21:49:06.713Z,54.00
2018-09-19T21:52:09.988Z,54.30
2018-09-19T21:55:13.480Z,54.10
2018-09-19T21:58:16.489Z,54.20
2018-09-19T22:01:25.150Z,53.90
2018-09-19T22:04:28.824Z,54.00
2018-09-19T22:07:32.293Z,54.30
2018-09-19T22:10:35.197Z,54.80
2018-09-19T22:13:39.601Z,54.80
2018-09-19T22:16:42.616Z,54.60
2018-09-19T22:19:45.541Z,54.40
2018-09-19T22:22:48.526Z,54.60
2018-09-19T22:25:51.457Z,54.90
2018-09-19T22:28:55.035Z,54.90
2018-09-19T22:31:58.413Z,54.70
2018-09-19T22:35:01.386Z,54.90
2018-09-19T22:38:04.331Z,55.00
2018-09-19T22:41:07.816Z,54.90
2018-09-19T22:44:11.212Z,54.80
2018-09-19T22:47:14.569Z,54.70
2018-09-19T22:50:17.583Z,54.90
2018-09-19T22:53:20.726Z,55.10
2018-09-19T22:56:23.639Z,55.20
2018-09-19T22:59:26.957Z,55.20
2018-09-19T23:02:29.879Z,55.40
2018-09-19T23:05:39.684Z,55.40
2018-09-19T23:08:42.628Z,55.50
2018-09-19T23:11:45.601Z,55.90
2018-09-19T23:14:49.049Z,55.70
2018-09-19T23:17:52.517Z,55.10
2018-09-19T23:20:55.477Z,55.20
2018-09-19T23:23:58.397Z,55.10
2018-09-19T23:27:01.767Z,55.20
2018-09-19T23:30:05.217Z,55.40
2018-09-19T23:33:08.173Z,55.20
2018-09-19T23:36:11.112Z,55.70
2018-09-19T23:39:14.081Z,56.10
2018-09-19T23:42:17.742Z,56.10
2018-09-19T23:45:21.209Z,55.70
2018-09-19T23:48:24.102Z,56.00
2018-09-19T23:51:27.639Z,55.70
2018-09-19T23:54:30.556Z,55.50
2018-09-19T23:57:33.456Z,56.40
